Time;durP1;ratioP1;P1;durP2;ratioP2;P2;SDS_P1;SDS_P2;PMS_P1;PMS_P2;Temp;Humidity;BMP_temperature;BMP_pressure;BME280_temperature;BME280_humidity;BME280_pressure;Samples;Min_cycle;Max_cycle;Signal;HPM_P1;HPM_P2
2022/04/17 00:00:00;;;;;;;16.73;7.75;;;;;;;4.05;57.17;101802.34;5053318;28;20428;-79
2022/04/17 00:02:26;;;;;;;16.73;6.72;;;;;;;3.99;56.89;101792.69;5056618;28;20040;-79
2022/04/17 00:04:53;;;;;;;12.73;6.68;;;;;;;4.00;56.88;101800.72;5055666;28;20031;-79
2022/04/17 00:07:19;;;;;;;12.23;7.32;;;;;;;3.91;56.99;101783.41;5057082;28;20053;-79
2022/04/17 00:09:46;;;;;;;15.93;8.27;;;;;;;4.00;57.02;101795.09;5055641;28;20033;-79
2022/04/17 00:12:12;;;;;;;18.73;8.48;;;;;;;4.01;57.17;101795.91;5056970;28;20041;-81
2022/04/17 00:14:40;;;;;;;18.05;9.27;;;;;;;3.98;57.21;101782.63;5055635;28;20041;-80
2022/04/17 00:17:06;;;;;;;21.27;9.93;;;;;;;3.96;56.46;101776.56;5072288;28;20458;-80
2022/04/17 00:19:33;;;;;;;19.75;8.98;;;;;;;3.99;56.95;101787.88;5055446;28;20037;-80
2022/04/17 00:21:58;;;;;;;20.30;8.98;;;;;;;3.92;56.89;101774.53;5057164;28;20536;-80
2022/04/17 00:24:26;;;;;;;18.58;8.88;;;;;;;3.90;57.39;101781.78;5055414;28;20021;-80
2022/04/17 00:27:00;;;;;;;17.58;9.20;;;;;;;3.89;56.73;101786.63;5055544;28;20029;-80
2022/04/17 00:29:29;;;;;;;19.73;9.38;;;;;;;3.89;56.87;101791.47;5055459;28;20094;-81
2022/04/17 00:32:01;;;;;;;21.23;7.93;;;;;;;3.88;56.93;101787.00;5038578;28;20033;-81
2022/04/17 00:34:29;;;;;;;17.98;7.05;;;;;;;3.85;56.57;101793.44;5055189;28;20057;-80
2022/04/17 00:37:00;;;;;;;17.83;7.70;;;;;;;3.84;56.45;101780.56;5055237;28;20370;-80
2022/04/17 00:39:34;;;;;;;13.57;6.68;;;;;;;3.82;56.44;101788.59;5055316;28;20049;-81
2022/04/17 00:42:02;;;;;;;11.88;6.70;;;;;;;3.80;56.78;101791.78;5055057;28;20036;-81
2022/04/17 00:44:28;;;;;;;13.32;7.20;;;;;;;3.78;56.80;101794.22;5038647;28;20045;-80
2022/04/17 00:46:55;;;;;;;16.23;6.82;;;;;;;3.74;56.74;101790.59;5055034;28;20041;-81
2022/04/17 00:49:22;;;;;;;15.13;7.30;;;;;;;3.72;56.87;101789.34;5055140;28;20029;-81
2022/04/17 00:51:47;;;;;;;13.70;7.97;;;;;;;3.64;56.87;101776.44;5055142;28;20444;-81
2022/04/17 00:54:15;;;;;;;14.10;7.05;;;;;;;3.66;56.75;101785.28;5054902;28;20504;-80
2022/04/17 00:56:43;;;;;;;11.82;6.13;;;;;;;3.63;57.02;101786.09;5038403;28;20116;-80
2022/04/17 00:59:10;;;;;;;11.57;6.28;;;;;;;3.58;56.87;101775.22;5054662;28;20485;-81
2022/04/17 01:01:38;;;;;;;11.60;6.00;;;;;;;3.61;56.80;101774.41;5054675;28;20162;-81
2022/04/17 01:04:05;;;;;;;11.27;6.45;;;;;;;3.59;56.80;101783.28;5038316;28;20200;-80
2022/04/17 01:06:32;;;;;;;16.75;7.30;;;;;;;3.51;56.55;101764.69;5021552;28;20538;-81
2022/04/17 01:08:58;;;;;;;14.77;6.70;;;;;;;3.54;56.96;101771.56;5054606;28;20084;-80
2022/04/17 01:11:26;;;;;;;10.75;5.35;;;;;;;3.49;56.92;101767.13;5038308;28;20104;-81
2022/04/17 01:13:54;;;;;;;12.48;6.00;;;;;;;3.48;57.21;101777.56;5037295;28;20037;-79
2022/04/17 01:16:23;;;;;;;12.13;5.85;;;;;;;3.45;57.11;101772.72;5038229;28;20032;-81
2022/04/17 01:19:02;;;;;;;12.35;5.75;;;;;;;3.43;57.39;101769.50;5038131;28;20478;-81
2022/04/17 01:21:29;;;;;;;11.85;5.32;;;;;;;3.41;57.41;101763.44;5054227;28;20024;-81
2022/04/17 01:27:03;;;;;;;10.32;4.63;;;;;;;3.29;57.68;101757.34;5055414;28;20074;-81
2022/04/17 01:29:37;;;;;;;9.80;4.88;;;;;;;3.38;57.69;101766.25;5054501;28;20111;-80
2022/04/17 01:32:06;;;;;;;5.95;4.55;;;;;;;3.39;57.66;101765.06;5053993;28;20327;-80
2022/04/17 01:34:40;;;;;;;8.18;4.55;;;;;;;3.40;57.81;101770.28;5053771;28;20048;-79
2022/04/17 01:37:07;;;;;;;9.80;4.50;;;;;;;3.40;57.77;101767.47;5055636;28;20355;-80
2022/04/17 01:39:33;;;;;;;8.00;4.93;;;;;;;3.36;57.61;101761.00;5055290;28;20029;-80
2022/04/17 01:42:00;;;;;;;9.63;5.15;;;;;;;3.38;57.73;101760.63;5055146;28;20474;-80
2022/04/17 01:44:28;;;;;;;8.23;4.55;;;;;;;3.35;57.90;101756.59;5053748;28;20052;-80
2022/04/17 01:46:56;;;;;;;9.15;4.95;;;;;;;3.36;58.06;101763.00;5055080;28;20021;-81
2022/04/17 01:49:23;;;;;;;10.38;5.03;;;;;;;3.33;58.07;101761.00;5053981;28;20033;-80
2022/04/17 01:51:52;;;;;;;8.90;4.95;;;;;;;3.34;58.32;101757.00;5053888;28;20112;-79
2022/04/17 01:54:32;;;;;;;10.93;4.70;;;;;;;3.32;58.38;101757.38;5053583;28;20021;-79
2022/04/17 01:56:58;;;;;;;11.00;4.75;;;;;;;3.25;58.42;101754.53;5053560;28;20079;-81
2022/04/17 01:59:24;;;;;;;9.40;5.22;;;;;;;3.25;58.46;101748.91;5053347;28;20473;-81
2022/04/17 02:01:49;;;;;;;8.57;4.70;;;;;;;3.26;58.82;101749.69;5053540;28;20437;-80
2022/04/17 02:04:16;;;;;;;10.57;5.50;;;;;;;3.26;58.94;101750.50;5054642;28;20032;-80
2022/04/17 02:06:43;;;;;;;8.45;4.82;;;;;;;3.22;58.72;101741.22;5053244;28;20025;-79
2022/04/17 02:09:11;;;;;;;12.40;5.03;;;;;;;3.22;58.71;101740.41;5054643;28;20104;-79
2022/04/17 02:11:38;;;;;;;9.77;4.97;;;;;;;3.19;58.91;101732.75;5053186;28;20386;-80
2022/04/17 02:14:05;;;;;;;8.90;5.07;;;;;;;3.20;58.68;101738.00;5053029;28;20036;-80
2022/04/17 02:16:31;;;;;;;11.80;5.50;;;;;;;3.19;59.13;101733.56;5020173;28;20462;-80
2022/04/17 02:18:57;;;;;;;9.27;5.15;;;;;;;3.14;59.25;101730.31;5036501;28;20025;-80
2022/04/17 02:21:23;;;;;;;12.10;4.82;;;;;;;3.10;59.24;101732.31;5052850;28;20074;-80
2022/04/17 02:23:50;;;;;;;10.50;5.05;;;;;;;2.94;59.31;101705.28;5068486;28;20445;-81
2022/04/17 02:26:17;;;;;;;10.30;5.60;;;;;;;3.10;59.46;101726.69;5052678;28;20110;-79
2022/04/17 02:28:44;;;;;;;10.30;5.47;;;;;;;3.09;59.94;101736.31;5036023;28;20020;-80
2022/04/17 02:31:11;;;;;;;9.20;5.57;;;;;;;3.06;59.86;101734.31;5053265;28;20378;-79
2022/04/17 02:33:38;;;;;;;9.32;5.28;;;;;;;3.02;59.94;101728.63;5052518;28;20064;-80
2022/04/17 02:36:06;;;;;;;8.90;5.03;;;;;;;2.99;60.20;101738.69;5053987;28;20394;-80
2022/04/17 02:38:32;;;;;;;9.20;5.13;;;;;;;2.98;60.28;101730.63;5052610;28;20550;-79
2022/04/17 02:41:00;;;;;;;12.68;6.40;;;;;;;2.94;60.46;101730.59;5036016;28;20107;-79
2022/04/17 02:43:27;;;;;;;12.13;6.22;;;;;;;2.70;60.25;101705.13;5035753;28;20389;-80
2022/04/17 02:45:54;;;;;;;16.65;7.03;;;;;;;2.84;60.60;101739.78;5052723;28;20466;-80
2022/04/17 02:48:20;;;;;;;14.43;7.00;;;;;;;2.86;60.48;101747.84;5054006;28;20128;-80
2022/04/17 02:50:55;;;;;;;12.50;6.97;;;;;;;2.81;60.79;101746.16;5052565;28;20477;-80
2022/04/17 02:53:24;;;;;;;19.20;7.78;;;;;;;2.78;60.89;101744.16;5052323;28;20025;-81
2022/04/17 02:55:58;;;;;;;14.85;6.88;;;;;;;2.75;61.38;101747.75;5052214;28;20056;-80
2022/04/17 02:58:24;;;;;;;14.60;6.60;;;;;;;2.68;61.34;101744.88;5052353;28;20383;-80
2022/04/17 03:06:20;;;;;;;14.65;6.05;;;;;;;2.69;61.67;101756.94;5053798;28;20059;-80
2022/04/17 03:08:45;;;;;;;9.80;5.35;;;;;;;2.68;61.64;101758.13;5035618;28;20106;-80
2022/04/17 03:11:11;;;;;;;8.32;4.55;;;;;;;2.67;61.64;101765.75;5052256;28;20064;-80
2022/04/17 03:13:38;;;;;;;10.10;4.80;;;;;;;2.66;61.87;101764.16;5069013;28;20016;-80
2022/04/17 03:16:05;;;;;;;10.68;5.10;;;;;;;2.66;62.06;101766.97;5034828;28;20116;-80
2022/04/17 03:18:32;;;;;;;8.32;5.00;;;;;;;2.59;62.02;101753.66;5052012;28;20522;-79
2022/04/17 03:20:59;;;;;;;10.80;5.93;;;;;;;2.66;62.06;101757.72;5052494;28;20044;-81
2022/04/17 03:23:26;;;;;;;10.68;5.43;;;;;;;2.72;62.33;101762.59;5052410;28;20032;-80
2022/04/17 03:25:54;;;;;;;9.50;5.40;;;;;;;2.75;61.80;101766.63;5035496;28;20040;-81
2022/04/17 03:28:19;;;;;;;10.25;5.07;;;;;;;2.69;62.20;101763.38;5051948;28;20036;-79
2022/04/17 03:30:46;;;;;;;8.75;5.10;;;;;;;2.69;61.80;101757.75;5051979;28;20024;-79
2022/04/17 03:33:12;;;;;;;8.45;5.00;;;;;;;2.78;61.76;101755.41;5034927;28;20045;-80
2022/04/17 03:35:39;;;;;;;9.45;5.55;;;;;;;2.81;62.30;101763.06;5068840;28;20029;-81
2022/04/17 03:38:05;;;;;;;10.15;5.50;;;;;;;2.81;61.96;101753.81;5055966;28;20484;-80
2022/04/17 03:40:33;;;;;;;8.40;5.63;;;;;;;2.86;62.14;101765.50;5056126;28;20097;-81
2022/04/17 03:42:59;;;;;;;11.02;5.57;;;;;;;2.83;62.21;101755.03;5056135;28;20060;-81
2022/04/17 03:45:25;;;;;;;12.80;6.40;;;;;;;2.84;62.26;101765.09;5056310;28;20127;-81
2022/04/17 03:47:53;;;;;;;9.00;6.47;;;;;;;2.78;62.90;101752.59;5055593;28;20037;-81
2022/04/17 03:50:19;;;;;;;19.35;6.93;;;;;;;2.81;61.87;101751.00;5039233;28;20492;-81
2022/04/17 03:53:00;;;;;;;11.82;5.70;;;;;;;2.80;62.47;101746.59;5055818;28;20024;-81
2022/04/17 03:55:25;;;;;;;11.82;6.10;;;;;;;2.90;62.40;101762.72;5058488;28;20044;-81
2022/04/17 03:57:53;;;;;;;12.40;6.32;;;;;;;2.86;62.44;101754.25;5057084;28;20371;-80
2022/04/17 04:00:20;;;;;;;11.23;6.00;;;;;;;2.98;62.27;101764.38;5055525;28;20122;-80
2022/04/17 04:02:49;;;;;;;10.60;6.30;;;;;;;2.99;62.46;101766.81;5056819;28;20489;-80
2022/04/17 04:05:15;;;;;;;12.40;6.65;;;;;;;3.05;62.41;101758.81;5039115;28;20055;-79
2022/04/17 04:07:40;;;;;;;15.02;6.90;;;;;;;3.10;61.74;101757.66;5055584;28;20025;-81
2022/04/17 04:10:09;;;;;;;17.13;6.82;;;;;;;3.22;61.77;101762.94;5056989;28;20062;-79
2022/04/17 04:12:39;;;;;;;18.40;6.97;;;;;;;3.30;61.40;101759.78;5022268;28;20037;-79
2022/04/17 04:15:06;;;;;;;11.87;6.57;;;;;;;3.40;61.22;101764.63;5038657;28;20359;-82
2022/04/17 04:17:34;;;;;;;12.38;6.47;;;;;;;3.48;61.21;101771.13;5055311;28;20363;-80
2022/04/17 04:20:00;;;;;;;14.40;7.05;;;;;;;3.58;60.95;101772.38;5038922;28;20033;-80
2022/04/17 04:22:27;;;;;;;15.57;7.32;;;;;;;3.65;60.67;101767.59;5038848;28;20029;-79
2022/04/17 04:24:52;;;;;;;16.13;6.95;;;;;;;3.74;59.99;101768.06;5056687;28;20033;-81
2022/04/17 04:30:06;;;;;;;13.30;6.55;;;;;;;3.84;59.77;101758.03;5056502;28;20434;-80
2022/04/17 04:32:33;;;;;;;16.13;7.03;;;;;;;3.84;59.57;101758.81;5056333;28;20128;-80
2022/04/17 04:35:00;;;;;;;14.85;7.78;;;;;;;3.91;59.36;101758.84;5058486;28;20025;-80
2022/04/17 04:37:27;;;;;;;17.52;7.10;;;;;;;3.94;59.62;101754.44;5058255;28;20134;-80
2022/04/17 04:39:54;;;;;;;13.52;6.90;;;;;;;3.92;59.02;101748.38;5058124;28;20119;-80
2022/04/17 04:42:27;;;;;;;11.23;6.35;;;;;;;3.97;59.29;101759.25;5076255;28;20082;-79
2022/04/17 04:46:06;;;;;;;12.00;6.70;;;;;;;3.90;58.70;101745.13;5075933;28;20031;-81
2022/04/17 04:47:53;;;;;;;12.98;6.82;;;;;;;4.04;58.93;101762.13;5060709;28;20032;-79
2022/04/17 04:50:20;;;;;;;10.15;6.82;;;;;;;4.05;58.68;101763.69;5057816;28;20039;-81
2022/04/17 04:52:47;;;;;;;12.30;6.85;;;;;;;4.09;59.04;101760.91;5057881;28;20456;-79
2022/04/17 04:55:12;;;;;;;11.82;6.57;;;;;;;4.13;58.50;101761.72;5075579;28;20017;-80
2022/04/17 04:57:38;;;;;;;10.80;6.40;;;;;;;4.17;58.94;101765.34;5057807;28;20469;-80
2022/04/17 05:00:05;;;;;;;14.05;6.63;;;;;;;4.24;58.45;101768.19;5057546;28;20059;-79
2022/04/17 05:02:31;;;;;;;12.98;6.38;;;;;;;4.10;57.75;101728.66;5057464;28;20033;-79
2022/04/17 05:04:56;;;;;;;13.05;6.15;;;;;;;4.27;57.61;101742.00;5057529;28;20027;-80
2022/04/17 05:07:21;;;;;;;10.07;6.07;;;;;;;4.40;58.08;101751.69;5057600;28;20024;-79
2022/04/17 05:09:48;;;;;;;11.13;6.22;;;;;;;4.48;57.99;101746.88;5057581;28;20056;-79
2022/04/17 05:12:14;;;;;;;12.70;6.68;;;;;;;4.56;57.40;101756.94;5040408;28;20036;-80
2022/04/17 05:14:41;;;;;;;14.13;7.22;;;;;;;4.62;57.22;101752.53;5075534;28;20114;-80
2022/04/17 05:17:08;;;;;;;11.35;6.05;;;;;;;4.75;56.99;101759.34;5058157;28;20446;-79
2022/04/17 05:19:35;;;;;;;12.68;6.70;;;;;;;4.81;57.14;101754.94;5040866;28;20386;-80
2022/04/17 05:22:02;;;;;;;12.95;7.60;;;;;;;4.89;57.13;101762.19;5057598;28;20099;-79
2022/04/17 05:24:28;;;;;;;9.45;5.95;;;;;;;4.96;56.45;101753.72;5075461;28;20492;-80
2022/04/17 05:26:54;;;;;;;10.43;5.65;;;;;;;4.98;55.83;101753.31;5040878;28;20024;-80
2022/04/17 05:29:22;;;;;;;8.65;5.60;;;;;;;5.12;55.25;101748.44;5057078;28;20131;-81
2022/04/17 05:31:49;;;;;;;10.98;5.50;;;;;;;5.17;55.61;101752.88;5075331;28;20017;-81
2022/04/17 05:34:16;;;;;;;12.95;5.90;;;;;;;5.22;55.09;101756.09;5057444;28;20040;-79
2022/04/17 05:36:42;;;;;;;12.63;6.13;;;;;;;5.38;54.62;101755.63;5075174;28;20012;-79
2022/04/17 05:39:09;;;;;;;8.45;5.22;;;;;;;5.41;54.13;101740.72;5040641;28;20031;-81
2022/04/17 05:41:37;;;;;;;7.03;4.85;;;;;;;5.59;53.31;101746.28;5040700;28;20023;-80
2022/04/17 05:44:05;;;;;;;6.63;4.78;;;;;;;5.70;53.52;101755.53;5040907;28;20028;-80
2022/04/17 05:46:35;;;;;;;12.18;4.97;;;;;;;5.78;53.35;101754.28;5040555;28;20496;-80
2022/04/17 05:49:03;;;;;;;6.93;4.25;;;;;;;5.84;52.05;101758.28;5057440;28;20162;-81
2022/04/17 05:51:29;;;;;;;8.63;4.30;;;;;;;5.91;51.71;101741.34;5040678;28;20059;-80
2022/04/17 05:53:54;;;;;;;6.70;4.00;;;;;;;5.95;51.25;101747.78;5075107;28;20097;-80
2022/04/17 05:56:21;;;;;;;8.55;4.30;;;;;;;6.02;50.90;101747.72;5057183;28;20458;-80
2022/04/17 05:58:47;;;;;;;7.15;4.28;;;;;;;6.11;50.80;101750.13;5039860;28;20202;-79
2022/04/17 06:01:13;;;;;;;8.88;3.88;;;;;;;6.19;50.45;101753.69;5056865;28;20038;-79
2022/04/17 06:03:39;;;;;;;6.82;3.30;;;;;;;6.25;50.34;101754.88;5074893;28;20107;-80
2022/04/17 06:06:05;;;;;;;6.13;3.80;;;;;;;6.28;50.09;101742.72;5074768;28;20153;-79
2022/04/17 06:08:30;;;;;;;5.88;3.33;;;;;;;6.40;49.55;101757.22;5040391;28;20040;-78
2022/04/17 06:10:59;;;;;;;7.68;3.45;;;;;;;6.43;49.59;101752.72;5056602;28;20366;-78
2022/04/17 06:13:26;;;;;;;5.15;3.30;;;;;;;6.57;49.32;101757.47;5074646;28;20045;-78
2022/04/17 06:15:52;;;;;;;4.75;3.42;;;;;;;6.55;48.29;101749.41;5039924;28;20037;-78
2022/04/17 06:18:17;;;;;;;6.85;3.83;;;;;;;6.60;48.77;101748.97;5056430;28;20381;-79
2022/04/17 06:20:43;;;;;;;6.13;3.70;;;;;;;6.74;48.79;101753.72;5056120;28;20548;-78
2022/04/17 06:23:08;;;;;;;6.70;3.10;;;;;;;6.80;48.28;101744.34;5056520;28;20189;-79
2022/04/17 06:25:35;;;;;;;6.90;3.60;;;;;;;6.94;48.87;101749.09;5074310;28;20116;-79
2022/04/17 06:28:03;;;;;;;4.22;2.95;;;;;;;7.01;48.11;101745.34;5039534;28;20081;-79
2022/04/17 06:30:28;;;;;;;5.80;3.50;;;;;;;6.94;47.92;101730.06;5056414;28;20028;-79
2022/04/17 06:32:55;;;;;;;5.30;3.90;;;;;;;7.06;47.87;101745.72;5056208;28;20101;-79
2022/04/17 06:35:21;;;;;;;6.72;3.58;;;;;;;7.21;47.98;101752.03;5074390;28;20475;-79
2022/04/17 06:37:58;;;;;;;6.97;3.55;;;;;;;7.41;47.40;101750.22;5056189;28;20017;-77
2022/04/17 06:40:25;;;;;;;6.43;4.00;;;;;;;7.68;46.95;101744.63;5056278;28;20024;-77
2022/04/17 06:42:52;;;;;;;6.25;3.33;;;;;;;8.35;46.74;101740.91;5056132;28;20117;-77
2022/04/17 06:45:19;;;;;;;6.88;3.60;;;;;;;10.01;42.65;101739.84;5039937;28;20059;-78
2022/04/17 06:47:46;;;;;;;5.30;3.60;;;;;;;12.01;39.72;101737.13;5056053;28;20041;-77
2022/04/17 06:50:27;;;;;;;5.93;3.58;;;;;;;13.90;34.11;101727.38;5039688;28;20029;-78
2022/04/17 06:52:54;;;;;;;7.82;4.45;;;;;;;15.07;32.84;101709.06;5073744;28;20121;-78
2022/04/17 06:55:21;;;;;;;5.47;3.05;;;;;;;16.12;32.21;101712.53;5074407;28;20099;-78
2022/04/17 06:57:50;;;;;;;7.50;3.58;;;;;;;17.10;29.09;101714.66;5076874;28;20055;-78
2022/04/17 07:00:19;;;;;;;6.47;3.70;;;;;;;18.33;28.17;101701.34;5056846;28;20123;-78
2022/04/17 07:02:45;;;;;;;5.65;3.78;;;;;;;19.49;25.71;101700.69;5039766;28;20484;-78
2022/04/17 07:05:12;;;;;;;6.53;4.20;;;;;;;20.38;25.62;101702.38;5073653;28;20032;-77
2022/04/17 07:07:39;;;;;;;6.10;3.97;;;;;;;21.41;24.81;101696.16;5055612;28;20115;-78
2022/04/17 07:10:06;;;;;;;4.80;3.58;;;;;;;22.24;23.60;101701.41;5052359;28;20048;-79
2022/04/17 07:12:34;;;;;;;5.78;3.65;;;;;;;22.87;22.36;101703.72;5073493;28;20067;-78
2022/04/17 07:15:00;;;;;;;4.47;3.05;;;;;;;23.27;22.05;101708.09;5072922;28;20075;-78
2022/04/17 07:17:36;;;;;;;5.40;3.13;;;;;;;23.18;19.05;101715.03;5055917;28;20107;-78
2022/04/17 07:20:06;;;;;;;5.75;3.72;;;;;;;23.22;21.09;101714.72;5055730;28;20119;-79
2022/04/17 07:22:34;;;;;;;6.18;3.60;;;;;;;23.79;20.47;101705.22;5055856;28;20036;-80
2022/04/17 07:25:01;;;;;;;4.65;3.55;;;;;;;23.95;19.93;101709.38;5056071;28;20044;-79
2022/04/17 07:27:38;;;;;;;6.40;3.20;;;;;;;24.20;18.66;101708.16;5073957;28;20420;-79
2022/04/17 07:30:15;;;;;;;4.97;3.40;;;;;;;24.54;18.41;101699.91;5056389;28;20052;-80
2022/04/17 07:32:53;;;;;;;3.30;2.70;;;;;;;24.66;18.89;101704.31;5073118;28;20044;-79
2022/04/17 07:35:38;;;;;;;4.53;3.05;;;;;;;24.81;17.35;101703.91;5073550;28;20028;-79
2022/04/17 07:38:04;;;;;;;5.40;4.22;;;;;;;24.78;18.88;101687.50;5054586;28;20067;-79
2022/04/17 07:40:32;;;;;;;4.35;3.63;;;;;;;25.09;18.96;101689.03;5055952;28;20036;-79
2022/04/17 07:43:00;;;;;;;5.35;3.45;;;;;;;25.22;18.45;101689.13;5038851;28;20037;-79
2022/04/17 07:45:29;;;;;;;3.20;2.72;;;;;;;25.23;17.53;101687.81;5038731;28;20036;-79
2022/04/17 07:47:55;;;;;;;4.32;3.17;;;;;;;24.94;17.43;101686.56;5055380;28;20033;-79
2022/04/17 07:50:24;;;;;;;5.43;3.25;;;;;;;24.81;18.11;101680.59;5055437;28;20401;-79
2022/04/17 07:52:50;;;;;;;5.38;3.35;;;;;;;24.62;18.46;101683.41;5055622;28;20032;-79
2022/04/17 07:55:18;;;;;;;6.13;2.97;;;;;;;24.75;18.34;101680.63;5055504;28;20040;-79
2022/04/17 08:00:57;;;;;;;2.80;2.50;;;;;;;24.82;17.06;101668.34;5058182;28;20040;-79
2022/04/17 08:03:46;;;;;;;4.43;2.72;;;;;;;24.82;19.16;101667.56;5073154;28;20113;-80
2022/04/17 08:06:17;;;;;;;3.88;2.83;;;;;;;25.32;17.99;101667.78;5056148;28;20033;-80
2022/04/17 08:08:44;;;;;;;3.20;2.28;;;;;;;25.51;17.54;101667.78;5055509;28;20024;-80
2022/04/17 08:11:18;;;;;;;3.70;2.63;;;;;;;25.61;16.39;101653.63;5038498;28;20039;-79
2022/04/17 08:13:46;;;;;;;3.63;2.58;;;;;;;25.83;18.04;101655.44;5055231;28;20531;-79
2022/04/17 08:16:13;;;;;;;4.25;2.80;;;;;;;26.07;17.25;101658.22;5073206;28;20020;-79
2022/04/17 08:18:40;;;;;;;3.42;2.47;;;;;;;26.13;17.14;101656.81;5072906;28;20056;-79
2022/04/17 08:21:06;;;;;;;3.60;2.60;;;;;;;26.14;16.98;101651.75;5038408;28;20475;-79
2022/04/17 08:23:35;;;;;;;4.55;2.22;;;;;;;26.05;16.32;101655.09;5058314;28;20093;-80
2022/04/17 08:26:05;;;;;;;4.15;2.50;;;;;;;25.72;16.03;101663.00;5059248;28;20102;-79
2022/04/17 08:28:31;;;;;;;2.75;2.30;;;;;;;25.43;17.42;101661.03;5058771;28;20394;-79
2022/04/17 08:30:59;;;;;;;3.72;2.08;;;;;;;25.17;17.21;101637.50;5058769;28;20477;-79
2022/04/17 08:33:26;;;;;;;3.53;2.75;;;;;;;25.12;17.10;101644.19;5054848;28;20056;-80
2022/04/17 08:36:07;;;;;;;3.25;2.50;;;;;;;24.84;16.60;101635.75;5056367;28;20021;-80
2022/04/17 08:38:34;;;;;;;3.88;2.60;;;;;;;24.67;17.89;101641.75;5055206;28;20489;-80
2022/04/17 08:41:03;;;;;;;4.18;2.47;;;;;;;24.46;17.74;101643.59;5055411;28;20074;-80
2022/04/17 08:43:37;;;;;;;4.63;2.53;;;;;;;24.42;17.22;101634.34;5055050;28;20065;-79
2022/04/17 08:46:03;;;;;;;3.75;2.70;;;;;;;24.43;17.38;101633.78;5038358;28;20029;-78
2022/04/17 08:48:29;;;;;;;2.63;2.10;;;;;;;24.22;17.93;101632.69;5056291;28;20033;-79
2022/04/17 08:50:55;;;;;;;4.22;2.88;;;;;;;23.82;18.04;101630.59;5055014;28;20040;-79
2022/04/17 08:53:29;;;;;;;3.88;2.60;;;;;;;23.33;19.11;101635.38;5054876;28;20033;-79
2022/04/17 08:55:54;;;;;;;3.53;2.70;;;;;;;23.13;19.63;101622.00;5056234;28;20113;-79
2022/04/17 08:58:22;;;;;;;3.92;2.85;;;;;;;23.28;19.43;101619.53;5038112;28;20116;-79
2022/04/17 09:00:50;;;;;;;6.07;2.65;;;;;;;23.43;18.86;101625.81;5055851;28;20390;-79
2022/04/17 09:03:17;;;;;;;3.00;2.33;;;;;;;23.35;18.26;101615.25;5056372;28;20354;-79
2022/04/17 09:05:43;;;;;;;2.95;2.30;;;;;;;22.99;18.66;101618.06;5056176;28;20477;-81
2022/04/17 09:08:28;;;;;;;6.10;3.13;;;;;;;22.72;18.31;101625.56;5054538;28;20021;-81
2022/04/17 09:11:16;;;;;;;4.43;2.45;;;;;;;22.36;19.20;101621.66;5038044;28;20371;-80
2022/04/17 09:13:43;;;;;;;4.10;2.53;;;;;;;22.10;19.25;101608.78;5053650;28;20405;-80
2022/04/17 09:16:12;;;;;;;5.22;2.85;;;;;;;21.85;19.65;101610.59;5054473;28;20032;-79
2022/04/17 09:18:39;;;;;;;5.13;2.58;;;;;;;21.43;19.81;101609.47;5054363;28;20041;-78
2022/04/17 09:21:05;;;;;;;3.67;2.67;;;;;;;20.98;20.69;101604.78;5055840;28;20021;-79
2022/04/17 09:23:33;;;;;;;3.35;2.65;;;;;;;20.42;20.54;101598.75;5055625;28;20380;-79
2022/04/17 09:26:00;;;;;;;7.15;3.58;;;;;;;20.19;21.87;101599.84;5054344;28;20033;-79
2022/04/17 09:28:34;;;;;;;6.15;2.67;;;;;;;20.11;21.77;101601.63;5054185;28;20043;-79
2022/04/17 09:31:01;;;;;;;6.55;2.42;;;;;;;19.76;21.37;101599.78;5055352;28;20037;-79
2022/04/17 09:33:49;;;;;;;5.82;2.72;;;;;;;19.46;23.63;101580.28;5035926;28;20060;-79
2022/04/17 09:36:15;;;;;;;4.63;2.95;;;;;;;19.32;22.15;101590.63;5055377;28;20033;-78
2022/04/17 09:38:41;;;;;;;3.03;2.20;;;;;;;19.09;22.75;101575.16;5054063;28;20086;-79
2022/04/17 09:41:13;;;;;;;2.97;2.22;;;;;;;18.93;22.73;101575.75;5054018;28;20032;-80
2022/04/17 09:43:39;;;;;;;4.07;2.55;;;;;;;18.64;23.28;101573.00;5038102;28;20032;-79
2022/04/17 09:46:06;;;;;;;2.75;2.33;;;;;;;18.44;22.87;101571.69;5037218;28;20032;-79
2022/04/17 09:48:43;;;;;;;4.93;2.63;;;;;;;18.25;23.22;101569.56;5054046;28;20424;-79
2022/04/17 09:51:27;;;;;;;4.55;2.67;;;;;;;17.79;22.68;101558.63;5054058;28;20057;-80
2022/04/17 09:54:05;;;;;;;3.72;2.47;;;;;;;17.56;24.12;101559.50;5055091;28;20075;-80
2022/04/17 09:56:40;;;;;;;3.42;2.30;;;;;;;17.32;24.79;101550.16;5037182;28;20025;-80
2022/04/17 09:59:24;;;;;;;6.50;2.50;;;;;;;17.17;24.11;101548.03;5053962;28;20029;-79
2022/04/17 10:01:55;;;;;;;3.47;2.30;;;;;;;17.16;24.80;101557.19;5037706;28;20029;-79
2022/04/17 10:04:24;;;;;;;4.13;2.75;;;;;;;17.19;25.36;101557.00;5053809;28;20028;-79
2022/04/17 10:06:55;;;;;;;3.42;2.05;;;;;;;17.15;25.12;101553.53;5053401;28;20032;-79
2022/04/17 10:09:22;;;;;;;2.60;2.40;;;;;;;17.30;25.19;101559.28;5070109;28;20056;-80
2022/04/17 10:11:51;;;;;;;3.13;2.50;;;;;;;16.92;24.49;101550.72;5053544;28;20032;-80
2022/04/17 10:14:17;;;;;;;3.78;2.45;;;;;;;16.74;24.71;101549.56;5037076;28;20033;-80
2022/04/17 10:16:52;;;;;;;4.93;2.90;;;;;;;16.46;26.02;101544.47;5054509;28;20488;-80
2022/04/17 10:19:24;;;;;;;3.28;2.40;;;;;;;16.42;26.56;101530.28;5053296;28;20524;-79
2022/04/17 10:21:51;;;;;;;3.95;2.20;;;;;;;16.54;25.80;101534.19;5053167;28;20102;-80
2022/04/17 10:24:32;;;;;;;4.00;2.85;;;;;;;16.58;25.97;101537.66;5036638;28;20055;-81
2022/04/17 10:27:00;;;;;;;4.05;2.30;;;;;;;16.25;25.99;101547.16;5036442;28;20021;-79
2022/04/17 10:29:46;;;;;;;3.22;2.55;;;;;;;16.13;26.12;101538.78;5036424;28;20036;-79
2022/04/17 10:32:19;;;;;;;5.05;2.70;;;;;;;15.98;27.01;101535.84;5053812;28;20041;-78
2022/04/17 10:35:06;;;;;;;5.30;2.50;;;;;;;15.91;27.47;101522.59;5073556;28;20098;-79
2022/04/17 10:37:31;;;;;;;4.57;2.28;;;;;;;15.86;27.22;101517.53;5072733;28;20074;-79
2022/04/17 10:40:12;;;;;;;3.67;2.45;;;;;;;15.93;27.10;101517.19;5074038;28;20028;-79
2022/04/17 10:42:59;;;;;;;2.50;2.25;;;;;;;15.95;27.10;101511.72;5072707;28;20398;-78
2022/04/17 10:45:27;;;;;;;3.95;2.35;;;;;;;15.90;28.41;101492.28;5055321;28;20374;-79
2022/04/17 10:48:12;;;;;;;3.22;2.20;;;;;;;15.94;27.57;101490.00;5039614;28;20036;-80
2022/04/17 10:50:51;;;;;;;3.08;2.03;;;;;;;15.69;26.55;101496.19;5056192;28;20477;-80
2022/04/17 10:53:24;;;;;;;2.25;2.05;;;;;;;15.67;27.76;101489.38;5055884;28;20064;-79
2022/04/17 10:56:10;;;;;;;3.95;2.08;;;;;;;15.70;26.73;101497.00;5073904;28;20040;-78
2022/04/17 10:58:57;;;;;;;3.60;1.88;;;;;;;15.47;27.32;101487.03;5055908;28;20032;-78
2022/04/17 11:01:41;;;;;;;2.53;1.88;;;;;;;15.21;26.87;101477.22;5073678;28;20073;-78
2022/04/17 11:04:16;;;;;;;2.28;1.60;;;;;;;15.05;29.81;101478.38;5074017;28;20044;-78
2022/04/17 11:06:42;;;;;;;3.38;2.15;;;;;;;14.92;28.59;101477.75;5073710;28;20415;-79
2022/04/17 11:09:24;;;;;;;2.55;1.85;;;;;;;14.75;27.55;101477.28;5039302;28;20028;-79
2022/04/17 11:11:52;;;;;;;3.00;2.00;;;;;;;14.59;27.59;101469.84;5056045;28;20162;-78
2022/04/17 11:14:23;;;;;;;2.35;1.83;;;;;;;14.39;27.44;101463.78;5038933;28;20032;-78
2022/04/17 11:17:00;;;;;;;4.10;1.98;;;;;;;14.30;28.44;101457.22;5055870;28;20012;-79
2022/04/17 11:19:32;;;;;;;3.50;1.90;;;;;;;14.24;28.66;101452.13;5039480;28;20052;-78
2022/04/17 11:22:02;;;;;;;2.65;2.00;;;;;;;14.13;28.27;101456.72;5055771;28;20104;-78
2022/04/17 11:24:54;;;;;;;2.15;1.38;;;;;;;14.12;28.84;101460.84;5055406;28;20020;-78
2022/04/17 11:27:49;;;;;;;3.33;1.63;;;;;;;14.16;28.54;101453.69;5073214;28;20032;-78
2022/04/17 11:30:19;;;;;;;2.65;2.10;;;;;;;14.12;28.34;101455.13;5073290;28;20100;-78
2022/04/17 11:32:49;;;;;;;3.72;2.38;;;;;;;14.09;27.71;101445.44;5073423;28;20048;-79
2022/04/17 11:35:20;;;;;;;2.17;1.63;;;;;;;13.90;27.18;101445.88;5055638;28;20020;-78
2022/04/17 11:37:55;;;;;;;3.83;2.10;;;;;;;13.86;28.21;101442.38;5073687;28;20016;-78
2022/04/17 11:40:36;;;;;;;2.38;1.90;;;;;;;13.93;28.76;101433.44;5073539;28;20028;-78
2022/04/17 11:43:10;;;;;;;3.45;1.98;;;;;;;13.88;28.22;101432.00;5073392;28;20374;-79
2022/04/17 11:45:36;;;;;;;2.50;1.80;;;;;;;13.96;28.79;101426.78;5073627;28;20024;-79
2022/04/17 11:48:20;;;;;;;2.53;2.03;;;;;;;13.98;28.33;101427.09;5055180;28;20094;-79
2022/04/17 11:50:52;;;;;;;4.55;1.90;;;;;;;13.88;28.15;101420.56;5073327;28;20052;-78